sensor_id;sensor_type;location;lat;lon;timestamp;pressure;altitude;pressure_sealevel;temperature;humidity
70229;BME280;57617;51.988;5.854;2022-08-01T00:00:30;101152.47;;;22.18;71.01
70229;BME280;57617;51.988;5.854;2022-08-01T00:02:56;101153.09;;;22.15;71.14
70229;BME280;57617;51.988;5.854;2022-08-01T00:05:22;101150.34;;;22.15;70.85
70229;BME280;57617;51.988;5.854;2022-08-01T00:07:47;101155.88;;;22.15;71.04
70229;BME280;57617;51.988;5.854;2022-08-01T00:10:15;101158.09;;;22.13;71.04
70229;BME280;57617;51.988;5.854;2022-08-01T00:12:41;101146.34;;;22.07;70.91
70229;BME280;57617;51.988;5.854;2022-08-01T00:15:08;101158.09;;;22.13;70.87
70229;BME280;57617;51.988;5.854;2022-08-01T00:17:34;101155.66;;;22.11;70.81
70229;BME280;57617;51.988;5.854;2022-08-01T00:20:00;101150.75;;;22.08;71.00
70229;BME280;57617;51.988;5.854;2022-08-01T00:22:27;101153.50;;;22.08;71.11
70229;BME280;57617;51.988;5.854;2022-08-01T00:24:53;101150.75;;;22.08;70.95
70229;BME280;57617;51.988;5.854;2022-08-01T00:27:18;101161.50;;;22.10;71.04
70229;BME280;57617;51.988;5.854;2022-08-01T00:29:43;101158.22;;;22.08;71.23
70229;BME280;57617;51.988;5.854;2022-08-01T00:32:08;101164.06;;;22.06;71.13
70229;BME280;57617;51.988;5.854;2022-08-01T00:34:34;101162.41;;;22.05;70.96
70229;BME280;57617;51.988;5.854;2022-08-01T00:36:59;101154.41;;;22.04;71.16
70229;BME280;57617;51.988;5.854;2022-08-01T00:39:24;101156.38;;;22.03;71.29
70229;BME280;57617;51.988;5.854;2022-08-01T00:41:49;101159.44;;;22.02;71.14
70229;BME280;57617;51.988;5.854;2022-08-01T00:44:15;101156.69;;;22.02;71.11
70229;BME280;57617;51.988;5.854;2022-08-01T00:46:40;101162.31;;;21.97;71.10
70229;BME280;57617;51.988;5.854;2022-08-01T00:49:06;101155.16;;;21.96;71.31
70229;BME280;57617;51.988;5.854;2022-08-01T00:51:31;101160.16;;;21.94;71.34
70229;BME280;57617;51.988;5.854;2022-08-01T00:53:56;101157.72;;;21.92;71.13
70229;BME280;57617;51.988;5.854;2022-08-01T00:56:25;101165.19;;;21.92;71.32
70229;BME280;57617;51.988;5.854;2022-08-01T00:58:51;101159.66;;;21.92;71.21
70229;BME280;57617;51.988;5.854;2022-08-01T01:01:16;101166.31;;;21.91;71.07
70229;BME280;57617;51.988;5.854;2022-08-01T01:03:42;101156.38;;;21.90;71.13
70229;BME280;57617;51.988;5.854;2022-08-01T01:08:43;101159.16;;;21.90;71.21
70229;BME280;57617;51.988;5.854;2022-08-01T01:14:04;101153.63;;;21.90;71.08
70229;BME280;57617;51.988;5.854;2022-08-01T01:16:30;101148.19;;;21.85;70.85
70229;BME280;57617;51.988;5.854;2022-08-01T01:19:00;101151.34;;;21.92;70.72
70229;BME280;57617;51.988;5.854;2022-08-01T01:29:21;101167.47;;;21.90;70.84
70229;BME280;57617;51.988;5.854;2022-08-01T01:31:59;101157.00;;;21.87;71.01
70229;BME280;57617;51.988;5.854;2022-08-01T01:34:28;101165.88;;;21.84;70.95
70229;BME280;57617;51.988;5.854;2022-08-01T01:36:56;101159.25;;;21.85;71.03
70229;BME280;57617;51.988;5.854;2022-08-01T01:39:24;101162.03;;;21.85;70.87
70229;BME280;57617;51.988;5.854;2022-08-01T01:41:51;101155.66;;;21.84;71.00
70229;BME280;57617;51.988;5.854;2022-08-01T01:44:18;101169.19;;;21.86;70.84
70229;BME280;57617;51.988;5.854;2022-08-01T01:46:44;101164.47;;;21.86;70.79
70229;BME280;57617;51.988;5.854;2022-08-01T01:49:11;101159.84;;;21.82;70.79
70229;BME280;57617;51.988;5.854;2022-08-01T01:51:38;101170.81;;;21.87;70.79
70229;BME280;57617;51.988;5.854;2022-08-01T01:54:06;101164.25;;;21.83;70.62
70229;BME280;57617;51.988;5.854;2022-08-01T01:56:34;101171.13;;;21.85;70.95
70229;BME280;57617;51.988;5.854;2022-08-01T01:59:01;101171.94;;;21.86;70.88
70229;BME280;57617;51.988;5.854;2022-08-01T02:01:29;101173.88;;;21.85;70.93
70229;BME280;57617;51.988;5.854;2022-08-01T02:03:57;101171.13;;;21.85;71.02
70229;BME280;57617;51.988;5.854;2022-08-01T02:06:25;101167.56;;;21.85;71.09
70229;BME280;57617;51.988;5.854;2022-08-01T02:08:53;101169.50;;;21.84;70.99
70229;BME280;57617;51.988;5.854;2022-08-01T02:11:20;101162.81;;;21.85;70.93
70229;BME280;57617;51.988;5.854;2022-08-01T02:13:54;101175.53;;;21.86;70.83
70229;BME280;57617;51.988;5.854;2022-08-01T02:16:24;101171.94;;;21.86;70.91
70229;BME280;57617;51.988;5.854;2022-08-01T02:18:50;101177.19;;;21.87;70.90
70229;BME280;57617;51.988;5.854;2022-08-01T02:21:20;101178.63;;;21.85;71.05
70229;BME280;57617;51.988;5.854;2022-08-01T02:23:48;101153.38;;;21.73;70.95
70229;BME280;57617;51.988;5.854;2022-08-01T02:26:17;101163.13;;;21.84;71.15
70229;BME280;57617;51.988;5.854;2022-08-01T02:29:02;101169.00;;;21.82;71.07
70229;BME280;57617;51.988;5.854;2022-08-01T02:31:32;101162.63;;;21.82;71.11
70229;BME280;57617;51.988;5.854;2022-08-01T02:34:04;101164.25;;;21.83;71.34
70229;BME280;57617;51.988;5.854;2022-08-01T02:36:33;101162.63;;;21.82;71.28
70229;BME280;57617;51.988;5.854;2022-08-01T02:39:02;101163.22;;;21.79;71.46
70229;BME280;57617;51.988;5.854;2022-08-01T02:41:30;101169.09;;;21.77;71.48
70229;BME280;57617;51.988;5.854;2022-08-01T02:43:59;101172.44;;;21.74;71.79
70229;BME280;57617;51.988;5.854;2022-08-01T02:46:33;101176.34;;;21.73;71.86
70229;BME280;57617;51.988;5.854;2022-08-01T02:49:03;101161.63;;;21.59;71.84
70229;BME280;57617;51.988;5.854;2022-08-01T02:51:30;101173.06;;;21.71;71.91
70229;BME280;57617;51.988;5.854;2022-08-01T02:53:57;101172.53;;;21.69;72.14
70229;BME280;57617;51.988;5.854;2022-08-01T02:56:25;101160.22;;;21.62;72.17
70229;BME280;57617;51.988;5.854;2022-08-01T02:59:06;101173.94;;;21.67;72.26
70229;BME280;57617;51.988;5.854;2022-08-01T03:01:34;101169.84;;;21.64;72.37
70229;BME280;57617;51.988;5.854;2022-08-01T03:04:00;101167.72;;;21.61;72.33
70229;BME280;57617;51.988;5.854;2022-08-01T03:06:26;101169.94;;;21.59;72.48
70229;BME280;57617;51.988;5.854;2022-08-01T03:08:52;101167.47;;;21.58;72.43
70229;BME280;57617;51.988;5.854;2022-08-01T03:11:20;101169.13;;;21.59;72.57
70229;BME280;57617;51.988;5.854;2022-08-01T03:13:47;101175.25;;;21.56;72.67
70229;BME280;57617;51.988;5.854;2022-08-01T03:16:14;101180.28;;;21.54;72.83
70229;BME280;57617;51.988;5.854;2022-08-01T03:18:41;101169.22;;;21.54;72.75
70229;BME280;57617;51.988;5.854;2022-08-01T03:21:10;101170.31;;;21.53;72.83
70229;BME280;57617;51.988;5.854;2022-08-01T03:23:38;101168.69;;;21.52;72.92
70229;BME280;57617;51.988;5.854;2022-08-01T03:26:03;101177.81;;;21.52;73.15
70229;BME280;57617;51.988;5.854;2022-08-01T03:28:30;101171.16;;;21.53;72.88
70229;BME280;57617;51.988;5.854;2022-08-01T03:30:56;101164.78;;;21.53;73.04
70229;BME280;57617;51.988;5.854;2022-08-01T03:33:23;101166.47;;;21.54;72.85
70229;BME280;57617;51.988;5.854;2022-08-01T03:35:51;101167.56;;;21.53;73.03
70229;BME280;57617;51.988;5.854;2022-08-01T03:38:21;101168.69;;;21.52;72.91
70229;BME280;57617;51.988;5.854;2022-08-01T03:40:55;101165.94;;;21.52;73.03
70229;BME280;57617;51.988;5.854;2022-08-01T03:43:31;101162.66;;;21.50;73.20
70229;BME280;57617;51.988;5.854;2022-08-01T03:46:01;101161.31;;;21.47;73.04
70229;BME280;57617;51.988;5.854;2022-08-01T03:48:32;101165.81;;;21.43;73.15
70229;BME280;57617;51.988;5.854;2022-08-01T03:51:01;101171.63;;;21.42;73.05
70229;BME280;57617;51.988;5.854;2022-08-01T03:53:30;101174.41;;;21.42;73.07
70229;BME280;57617;51.988;5.854;2022-08-01T03:55:58;101170.50;;;21.43;73.29
70229;BME280;57617;51.988;5.854;2022-08-01T03:58:25;101176.88;;;21.43;73.13
70229;BME280;57617;51.988;5.854;2022-08-01T04:00:51;101169.72;;;21.42;73.15
70229;BME280;57617;51.988;5.854;2022-08-01T04:03:17;101166.50;;;21.35;73.16
70229;BME280;57617;51.988;5.854;2022-08-01T04:05:43;101174.19;;;21.38;73.37
70229;BME280;57617;51.988;5.854;2022-08-01T04:08:08;101175.63;;;21.36;73.29
70229;BME280;57617;51.988;5.854;2022-08-01T04:10:34;101169.25;;;21.35;73.31
70229;BME280;57617;51.988;5.854;2022-08-01T04:12:59;101186.69;;;21.36;73.35
70229;BME280;57617;51.988;5.854;2022-08-01T04:15:25;101186.69;;;21.36;73.48
70229;BME280;57617;51.988;5.854;2022-08-01T04:17:50;101187.50;;;21.36;73.23
70229;BME280;57617;51.988;5.854;2022-08-01T04:20:15;101185.03;;;21.35;73.36
70229;BME280;57617;51.988;5.854;2022-08-01T04:22:41;101181.78;;;21.33;73.39
70229;BME280;57617;51.988;5.854;2022-08-01T04:25:19;101187.31;;;21.33;73.31
70229;BME280;57617;51.988;5.854;2022-08-01T04:27:47;101186.47;;;21.32;73.38
70229;BME280;57617;51.988;5.854;2022-08-01T04:30:14;101184.00;;;21.31;73.33
70229;BME280;57617;51.988;5.854;2022-08-01T04:32:42;101195.25;;;21.34;73.34
70229;BME280;57617;51.988;5.854;2022-08-01T04:35:12;101197.53;;;21.32;73.49
70229;BME280;57617;51.988;5.854;2022-08-01T04:37:39;101197.72;;;21.36;73.51
70229;BME280;57617;51.988;5.854;2022-08-01T04:40:06;101194.97;;;21.36;73.48
70229;BME280;57617;51.988;5.854;2022-08-01T04:42:33;101191.91;;;21.37;73.50
70229;BME280;57617;51.988;5.854;2022-08-01T04:44:59;101192.19;;;21.36;73.40
70229;BME280;57617;51.988;5.854;2022-08-01T04:47:26;101206.03;;;21.36;73.58
70229;BME280;57617;51.988;5.854;2022-08-01T04:49:51;101201.63;;;21.35;73.73
70229;BME280;57617;51.988;5.854;2022-08-01T04:52:17;101215.94;;;21.37;73.60
70229;BME280;57617;51.988;5.854;2022-08-01T04:54:43;101217.00;;;21.41;73.51
70229;BME280;57617;51.988;5.854;2022-08-01T04:57:08;101221.94;;;21.44;73.11
70229;BME280;57617;51.988;5.854;2022-08-01T04:59:35;101230.72;;;21.46;73.59
70229;BME280;57617;51.988;5.854;2022-08-01T05:02:07;101220.19;;;21.48;73.51
70229;BME280;57617;51.988;5.854;2022-08-01T05:04:33;101221.84;;;21.49;73.07
70229;BME280;57617;51.988;5.854;2022-08-01T05:06:59;101214.66;;;21.48;73.69
70229;BME280;57617;51.988;5.854;2022-08-01T05:09:25;101225.72;;;21.48;73.57
70229;BME280;57617;51.988;5.854;2022-08-01T05:11:50;101230.13;;;21.49;73.51
70229;BME280;57617;51.988;5.854;2022-08-01T05:14:15;101222.16;;;21.47;73.57
70229;BME280;57617;51.988;5.854;2022-08-01T05:16:41;101219.88;;;21.49;73.57
70229;BME280;57617;51.988;5.854;2022-08-01T05:19:06;101220.72;;;21.50;73.67
70229;BME280;57617;51.988;5.854;2022-08-01T05:21:33;101220.72;;;21.50;73.69
70229;BME280;57617;51.988;5.854;2022-08-01T05:23:58;101220.41;;;21.51;73.56
70229;BME280;57617;51.988;5.854;2022-08-01T05:26:24;101220.94;;;21.53;73.59
70229;BME280;57617;51.988;5.854;2022-08-01T05:28:49;101228.09;;;21.54;73.55
70229;BME280;57617;51.988;5.854;2022-08-01T05:31:14;101227.28;;;21.54;73.39
70229;BME280;57617;51.988;5.854;2022-08-01T05:33:39;101199.56;;;21.40;73.44
70229;BME280;57617;51.988;5.854;2022-08-01T05:36:05;101235.50;;;21.59;73.30
70229;BME280;57617;51.988;5.854;2022-08-01T05:38:30;101237.13;;;21.60;73.26
70229;BME280;57617;51.988;5.854;2022-08-01T05:40:55;101239.59;;;21.61;73.17
70229;BME280;57617;51.988;5.854;2022-08-01T05:43:21;101238.16;;;21.64;73.31
70229;BME280;57617;51.988;5.854;2022-08-01T05:45:46;101229.34;;;21.62;73.18
70229;BME280;57617;51.988;5.854;2022-08-01T05:48:12;101234.38;;;21.60;73.25
70229;BME280;57617;51.988;5.854;2022-08-01T05:50:37;101238.56;;;21.57;73.22
70229;BME280;57617;51.988;5.854;2022-08-01T05:53:02;101241.41;;;21.52;73.05
70229;BME280;57617;51.988;5.854;2022-08-01T05:55:28;101246.94;;;21.52;73.11
70229;BME280;57617;51.988;5.854;2022-08-01T05:57:53;101246.94;;;21.52;73.32
70229;BME280;57617;51.988;5.854;2022-08-01T06:00:18;101244.69;;;21.54;73.13
70229;BME280;57617;51.988;5.854;2022-08-01T06:02:44;101246.63;;;21.54;73.14
70229;BME280;57617;51.988;5.854;2022-08-01T06:05:10;101251.03;;;21.55;73.24
70229;BME280;57617;51.988;5.854;2022-08-01T06:07:36;101253.81;;;21.55;73.03
70229;BME280;57617;51.988;5.854;2022-08-01T06:10:02;101244.09;;;21.57;73.22
70229;BME280;57617;51.988;5.854;2022-08-01T06:12:27;101250.66;;;21.61;73.22
70229;BME280;57617;51.988;5.854;2022-08-01T06:14:52;101219.66;;;21.46;72.71
70229;BME280;57617;51.988;5.854;2022-08-01T06:17:18;101248.09;;;21.65;72.86
70229;BME280;57617;51.988;5.854;2022-08-01T06:19:43;101250.88;;;21.65;72.88
70229;BME280;57617;51.988;5.854;2022-08-01T06:22:08;101253.63;;;21.65;72.85
70229;BME280;57617;51.988;5.854;2022-08-01T06:24:33;101251.66;;;21.65;72.89
70229;BME280;57617;51.988;5.854;2022-08-01T06:26:59;101257.75;;;21.67;72.73
70229;BME280;57617;51.988;5.854;2022-08-01T06:29:24;101259.66;;;21.67;72.75
70229;BME280;57617;51.988;5.854;2022-08-01T06:31:49;101274.63;;;21.66;72.89
70229;BME280;57617;51.988;5.854;2022-08-01T06:34:15;101267.75;;;21.63;72.67
70229;BME280;57617;51.988;5.854;2022-08-01T06:36:40;101267.16;;;21.66;72.76
70229;BME280;57617;51.988;5.854;2022-08-01T06:39:05;101271.84;;;21.66;72.57
70229;BME280;57617;51.988;5.854;2022-08-01T06:41:31;101271.84;;;21.66;72.58
70229;BME280;57617;51.988;5.854;2022-08-01T06:43:56;101269.09;;;21.66;72.07
70229;BME280;57617;51.988;5.854;2022-08-01T06:46:21;101280.16;;;21.66;72.44
70229;BME280;57617;51.988;5.854;2022-08-01T06:48:47;101278.53;;;21.65;72.50
70229;BME280;57617;51.988;5.854;2022-08-01T06:51:12;101281.00;;;21.66;72.48
70229;BME280;57617;51.988;5.854;2022-08-01T06:53:41;101280.41;;;21.69;72.35
70229;BME280;57617;51.988;5.854;2022-08-01T06:56:07;101280.09;;;21.71;72.54
70229;BME280;57617;51.988;5.854;2022-08-01T06:58:33;101279.81;;;21.72;72.14
70229;BME280;57617;51.988;5.854;2022-08-01T07:00:59;101280.94;;;21.71;72.36
70229;BME280;57617;51.988;5.854;2022-08-01T07:03:25;101279.50;;;21.74;72.21
70229;BME280;57617;51.988;5.854;2022-08-01T07:05:50;101279.72;;;21.77;72.25
70229;BME280;57617;51.988;5.854;2022-08-01T07:08:15;101284.03;;;21.83;72.05
70229;BME280;57617;51.988;5.854;2022-08-01T07:10:41;101279.00;;;21.85;72.22
70229;BME280;57617;51.988;5.854;2022-08-01T07:13:06;101283.66;;;21.90;72.03
70229;BME280;57617;51.988;5.854;2022-08-01T07:15:31;101279.44;;;21.92;71.99
70229;BME280;57617;51.988;5.854;2022-08-01T07:17:56;101285.78;;;21.93;71.79
70229;BME280;57617;51.988;5.854;2022-08-01T07:20:23;101283.84;;;21.93;71.42
70229;BME280;57617;51.988;5.854;2022-08-01T07:22:49;101289.69;;;21.92;71.49
70229;BME280;57617;51.988;5.854;2022-08-01T07:25:14;101292.94;;;21.94;71.22
70229;BME280;57617;51.988;5.854;2022-08-01T07:27:39;101294.09;;;21.93;71.02
70229;BME280;57617;51.988;5.854;2022-08-01T07:30:05;101302.38;;;21.93;70.83
70229;BME280;57617;51.988;5.854;2022-08-01T07:32:31;101302.69;;;21.91;71.14
70229;BME280;57617;51.988;5.854;2022-08-01T07:34:56;101306.47;;;21.95;71.19
70229;BME280;57617;51.988;5.854;2022-08-01T07:37:22;101312.84;;;21.96;71.01
70229;BME280;57617;51.988;5.854;2022-08-01T07:39:49;101309.56;;;21.94;71.05
70229;BME280;57617;51.988;5.854;2022-08-01T07:42:14;101311.81;;;21.92;70.96
70229;BME280;57617;51.988;5.854;2022-08-01T07:44:39;101312.84;;;21.96;71.10
70229;BME280;57617;51.988;5.854;2022-08-01T07:47:05;101308.13;;;21.96;70.99
70229;BME280;57617;51.988;5.854;2022-08-01T07:49:31;101318.00;;;22.02;71.27
70229;BME280;57617;51.988;5.854;2022-08-01T07:51:56;101321.47;;;22.08;71.00
70229;BME280;57617;51.988;5.854;2022-08-01T07:54:21;101320.69;;;22.07;70.93
70229;BME280;57617;51.988;5.854;2022-08-01T07:56:49;101321.19;;;22.09;70.81
70229;BME280;57617;51.988;5.854;2022-08-01T07:59:15;101331.66;;;22.12;70.69
70229;BME280;57617;51.988;5.854;2022-08-01T08:01:40;101331.84;;;22.16;70.57
70229;BME280;57617;51.988;5.854;2022-08-01T08:04:06;101328.47;;;22.19;70.39
70229;BME280;57617;51.988;5.854;2022-08-01T08:06:31;101332.38;;;22.18;70.28
70229;BME280;57617;51.988;5.854;2022-08-01T08:08:57;101333.69;;;22.20;70.38
70229;BME280;57617;51.988;5.854;2022-08-01T08:11:22;101334.84;;;22.19;70.12
70229;BME280;57617;51.988;5.854;2022-08-01T08:13:47;101336.47;;;22.20;70.35
70229;BME280;57617;51.988;5.854;2022-08-01T08:16:12;101329.59;;;22.18;70.02
70229;BME280;57617;51.988;5.854;2022-08-01T08:18:38;101342.63;;;22.17;70.30
70229;BME280;57617;51.988;5.854;2022-08-01T08:21:04;101334.94;;;22.14;70.18
70229;BME280;57617;51.988;5.854;2022-08-01T08:23:29;101342.72;;;22.12;70.27
70229;BME280;57617;51.988;5.854;2022-08-01T08:26:13;101341.88;;;22.12;70.09
70229;BME280;57617;51.988;5.854;2022-08-01T08:28:38;101339.72;;;22.09;70.25
70229;BME280;57617;51.988;5.854;2022-08-01T08:31:04;101349.28;;;22.16;70.15
70229;BME280;57617;51.988;5.854;2022-08-01T08:33:29;101340.06;;;22.21;69.84
70229;BME280;57617;51.988;5.854;2022-08-01T08:35:54;101343.03;;;22.24;69.69
70229;BME280;57617;51.988;5.854;2022-08-01T08:38:20;101344.09;;;22.28;69.83
70229;BME280;57617;51.988;5.854;2022-08-01T08:40:45;101349.81;;;22.32;69.75
70229;BME280;57617;51.988;5.854;2022-08-01T08:43:11;101347.56;;;22.34;69.90
70229;BME280;57617;51.988;5.854;2022-08-01T08:45:37;101347.25;;;22.35;69.69
70229;BME280;57617;51.988;5.854;2022-08-01T08:48:04;101353.31;;;22.37;69.37
70229;BME280;57617;51.988;5.854;2022-08-01T08:50:30;101350.31;;;22.34;69.00
70229;BME280;57617;51.988;5.854;2022-08-01T08:52:55;101350.03;;;22.35;69.12
70229;BME280;57617;51.988;5.854;2022-08-01T08:55:22;101356.06;;;22.37;69.04
70229;BME280;57617;51.988;5.854;2022-08-01T08:57:48;101357.50;;;22.35;69.14
70229;BME280;57617;51.988;5.854;2022-08-01T09:00:14;101361.19;;;22.30;68.90
70229;BME280;57617;51.988;5.854;2022-08-01T09:02:46;101369.88;;;22.24;69.02
70229;BME280;57617;51.988;5.854;2022-08-01T09:05:13;101371.41;;;22.16;69.22
70229;BME280;57617;51.988;5.854;2022-08-01T09:07:39;101379.88;;;22.06;69.52
70229;BME280;57617;51.988;5.854;2022-08-01T09:10:05;101373.72;;;21.96;69.92
70229;BME280;57617;51.988;5.854;2022-08-01T09:12:30;101368.28;;;21.91;70.17
70229;BME280;57617;51.988;5.854;2022-08-01T09:14:56;101375.31;;;21.83;70.44
70229;BME280;57617;51.988;5.854;2022-08-01T09:17:21;101372.13;;;21.76;70.73
70229;BME280;57617;51.988;5.854;2022-08-01T09:19:54;101377.41;;;21.73;70.85
70229;BME280;57617;51.988;5.854;2022-08-01T09:22:22;101382.44;;;21.71;70.97
70229;BME280;57617;51.988;5.854;2022-08-01T09:25:07;101379.66;;;21.71;71.83
70229;BME280;57617;51.988;5.854;2022-08-01T09:27:34;101391.84;;;21.70;71.41
70229;BME280;57617;51.988;5.854;2022-08-01T09:30:11;101399.91;;;21.66;71.94
70229;BME280;57617;51.988;5.854;2022-08-01T09:33:01;101397.44;;;21.65;72.26
70229;BME280;57617;51.988;5.854;2022-08-01T09:35:34;101400.78;;;21.62;72.22
70229;BME280;57617;51.988;5.854;2022-08-01T09:38:19;101399.44;;;21.59;72.17
70229;BME280;57617;51.988;5.854;2022-08-01T09:40:48;101412.13;;;21.60;72.13
70229;BME280;57617;51.988;5.854;2022-08-01T09:43:16;101403.63;;;21.57;72.04
70229;BME280;57617;51.988;5.854;2022-08-01T09:45:41;101405.78;;;21.60;72.24
70229;BME280;57617;51.988;5.854;2022-08-01T09:48:09;101421.84;;;21.58;72.35
70229;BME280;57617;51.988;5.854;2022-08-01T09:50:41;101415.28;;;21.54;72.61
70229;BME280;57617;51.988;5.854;2022-08-01T09:53:07;101421.41;;;21.51;72.47
70229;BME280;57617;51.988;5.854;2022-08-01T09:55:33;101425.28;;;21.50;72.42
70229;BME280;57617;51.988;5.854;2022-08-01T09:57:58;101420.28;;;21.52;72.80
70229;BME280;57617;51.988;5.854;2022-08-01T10:00:26;101429.41;;;21.52;72.96
70229;BME280;57617;51.988;5.854;2022-08-01T10:02:52;101429.34;;;21.57;73.02
70229;BME280;57617;51.988;5.854;2022-08-01T10:05:17;101429.25;;;21.62;73.02
70229;BME280;57617;51.988;5.854;2022-08-01T10:07:57;101417.38;;;21.62;73.28
70229;BME280;57617;51.988;5.854;2022-08-01T10:10:22;101428.31;;;21.72;73.20
70229;BME280;57617;51.988;5.854;2022-08-01T10:12:48;101429.38;;;21.76;73.25
70229;BME280;57617;51.988;5.854;2022-08-01T10:15:16;101425.75;;;21.75;73.16
70229;BME280;57617;51.988;5.854;2022-08-01T10:17:53;101437.59;;;21.81;73.09
70229;BME280;57617;51.988;5.854;2022-08-01T10:20:21;101439.22;;;21.82;72.60
70229;BME280;57617;51.988;5.854;2022-08-01T10:22:47;101430.41;;;21.80;72.84
70229;BME280;57617;51.988;5.854;2022-08-01T10:25:15;101434.81;;;21.81;72.91
70229;BME280;57617;51.988;5.854;2022-08-01T10:27:43;101427.66;;;21.80;72.87
70229;BME280;57617;51.988;5.854;2022-08-01T10:30:11;101433.84;;;21.90;73.14
70229;BME280;57617;51.988;5.854;2022-08-01T10:32:36;101431.53;;;21.97;73.17
70229;BME280;57617;51.988;5.854;2022-08-01T10:35:04;101433.88;;;22.04;73.28
70229;BME280;57617;51.988;5.854;2022-08-01T10:37:29;101438.00;;;22.06;73.14
70229;BME280;57617;51.988;5.854;2022-08-01T10:39:56;101435.16;;;22.11;73.24
70229;BME280;57617;51.988;5.854;2022-08-01T10:42:21;101435.69;;;22.13;73.26
70229;BME280;57617;51.988;5.854;2022-08-01T10:44:48;101432.00;;;22.18;73.13
70229;BME280;57617;51.988;5.854;2022-08-01T10:47:17;101441.84;;;22.24;73.03
70229;BME280;57617;51.988;5.854;2022-08-01T10:49:48;101428.22;;;22.27;72.51
70229;BME280;57617;51.988;5.854;2022-08-01T10:52:17;101431.53;;;22.29;72.70
70229;BME280;57617;51.988;5.854;2022-08-01T10:54:42;101436.69;;;22.36;72.59
70229;BME280;57617;51.988;5.854;2022-08-01T10:57:08;101429.19;;;22.36;72.64
70229;BME280;57617;51.988;5.854;2022-08-01T10:59:33;101431.06;;;22.41;72.79
70229;BME280;57617;51.988;5.854;2022-08-01T11:02:05;101431.88;;;22.41;71.91
70229;BME280;57617;51.988;5.854;2022-08-01T11:07:07;101426.28;;;22.28;71.88
70229;BME280;57617;51.988;5.854;2022-08-01T11:09:39;101426.88;;;22.25;71.60
70229;BME280;57617;51.988;5.854;2022-08-01T11:12:10;101427.22;;;22.23;72.17
70229;BME280;57617;51.988;5.854;2022-08-01T11:17:33;101429.97;;;22.23;72.49
70229;BME280;57617;51.988;5.854;2022-08-01T11:20:12;101416.25;;;22.32;72.13
70229;BME280;57617;51.988;5.854;2022-08-01T11:30:48;101423.94;;;22.53;71.53
70229;BME280;57617;51.988;5.854;2022-08-01T11:33:17;101425.56;;;22.54;71.42
70229;BME280;57617;51.988;5.854;2022-08-01T11:38:37;101432.88;;;22.64;71.70
70229;BME280;57617;51.988;5.854;2022-08-01T11:41:16;101429.25;;;22.63;71.34
70229;BME280;57617;51.988;5.854;2022-08-01T11:43:59;101441.69;;;22.66;71.65
70229;BME280;57617;51.988;5.854;2022-08-01T11:46:47;101433.38;;;22.66;70.78
70229;BME280;57617;51.988;5.854;2022-08-01T11:49:27;101440.34;;;22.63;70.48
70229;BME280;57617;51.988;5.854;2022-08-01T11:52:41;101438.69;;;22.62;70.18
70229;BME280;57617;51.988;5.854;2022-08-01T11:55:07;101449.88;;;22.57;70.53
70229;BME280;57617;51.988;5.854;2022-08-01T11:57:34;101433.16;;;22.49;70.31
70229;BME280;57617;51.988;5.854;2022-08-01T12:00:18;101432.84;;;22.50;69.41
70229;BME280;57617;51.988;5.854;2022-08-01T12:02:45;101433.78;;;22.46;70.03
70229;BME280;57617;51.988;5.854;2022-08-01T12:05:12;101433.19;;;22.44;70.58
70229;BME280;57617;51.988;5.854;2022-08-01T12:07:40;101438.75;;;22.44;70.36
70229;BME280;57617;51.988;5.854;2022-08-01T12:10:11;101432.94;;;22.45;70.49
70229;BME280;57617;51.988;5.854;2022-08-01T12:12:42;101435.41;;;22.47;70.77
70229;BME280;57617;51.988;5.854;2022-08-01T12:15:08;101431.50;;;22.48;70.52
70229;BME280;57617;51.988;5.854;2022-08-01T12:17:37;101428.94;;;22.51;69.99
70229;BME280;57617;51.988;5.854;2022-08-01T12:20:05;101438.69;;;22.62;70.25
70229;BME280;57617;51.988;5.854;2022-08-01T12:22:31;101443.25;;;22.72;69.99
70229;BME280;57617;51.988;5.854;2022-08-01T12:25:05;101440.59;;;22.80;69.27
70229;BME280;57617;51.988;5.854;2022-08-01T12:27:31;101444.59;;;22.88;68.95
70229;BME280;57617;51.988;5.854;2022-08-01T12:29:57;101429.22;;;22.95;68.94
70229;BME280;57617;51.988;5.854;2022-08-01T12:32:28;101444.00;;;23.04;69.10
70229;BME280;57617;51.988;5.854;2022-08-01T12:35:00;101432.78;;;23.09;68.98
70229;BME280;57617;51.988;5.854;2022-08-01T12:37:26;101444.69;;;23.10;68.81
70229;BME280;57617;51.988;5.854;2022-08-01T12:39:51;101452.19;;;23.09;68.73
70229;BME280;57617;51.988;5.854;2022-08-01T12:42:17;101460.94;;;23.03;68.60
70229;BME280;57617;51.988;5.854;2022-08-01T12:44:45;101451.09;;;22.97;68.02
70229;BME280;57617;51.988;5.854;2022-08-01T12:47:13;101446.44;;;22.92;67.49
70229;BME280;57617;51.988;5.854;2022-08-01T12:49:40;101447.38;;;22.88;67.78
70229;BME280;57617;51.988;5.854;2022-08-01T12:52:06;101451.28;;;22.87;67.76
70229;BME280;57617;51.988;5.854;2022-08-01T12:58:02;101444.59;;;22.88;66.77
70229;BME280;57617;51.988;5.854;2022-08-01T13:00:28;101435.75;;;22.86;66.36
70229;BME280;57617;51.988;5.854;2022-08-01T13:03:23;101444.59;;;22.88;65.48
70229;BME280;57617;51.988;5.854;2022-08-01T13:05:56;101453.50;;;22.85;65.66
70229;BME280;57617;51.988;5.854;2022-08-01T13:08:32;101446.34;;;22.84;65.85
70229;BME280;57617;51.988;5.854;2022-08-01T13:11:04;101445.72;;;22.87;65.15
70229;BME280;57617;51.988;5.854;2022-08-01T13:13:47;101437.63;;;22.90;65.34
70229;BME280;57617;51.988;5.854;2022-08-01T13:16:13;101443.66;;;22.92;65.68
70229;BME280;57617;51.988;5.854;2022-08-01T13:18:39;101440.59;;;22.94;65.88
70229;BME280;57617;51.988;5.854;2022-08-01T13:21:34;101445.75;;;23.00;65.54
70229;BME280;57617;51.988;5.854;2022-08-01T13:24:11;101431.03;;;23.13;64.68
70229;BME280;57617;51.988;5.854;2022-08-01T13:26:52;101436.72;;;23.35;64.59